sensor_id;sensor_type;location;lat;lon;timestamp;P1;durP1;ratioP1;P2;durP2;ratioP2
60492;SDS011;46341;51.290;-2.474;2022-07-23T00:01:09;5.63;;;2.90;;
60492;SDS011;46341;51.290;-2.474;2022-07-23T00:03:35;5.07;;;2.92;;
60492;SDS011;46341;51.290;-2.474;2022-07-23T00:06:02;5.82;;;2.60;;
60492;SDS011;46341;51.290;-2.474;2022-07-23T00:08:34;6.85;;;3.10;;
60492;SDS011;46341;51.290;-2.474;2022-07-23T00:11:01;4.18;;;2.50;;
60492;SDS011;46341;51.290;-2.474;2022-07-23T00:13:27;4.43;;;2.58;;
60492;SDS011;46341;51.290;-2.474;2022-07-23T00:15:54;7.53;;;2.97;;
60492;SDS011;46341;51.290;-2.474;2022-07-23T00:18:21;5.03;;;2.15;;
60492;SDS011;46341;51.290;-2.474;2022-07-23T00:20:47;4.82;;;2.95;;
60492;SDS011;46341;51.290;-2.474;2022-07-23T00:23:14;6.40;;;2.63;;
60492;SDS011;46341;51.290;-2.474;2022-07-23T00:25:40;2.70;;;2.40;;
60492;SDS011;46341;51.290;-2.474;2022-07-23T00:28:07;4.25;;;2.50;;
60492;SDS011;46341;51.290;-2.474;2022-07-23T00:30:33;3.63;;;2.33;;
60492;SDS011;46341;51.290;-2.474;2022-07-23T00:33:01;5.23;;;2.53;;
60492;SDS011;46341;51.290;-2.474;2022-07-23T00:35:30;4.95;;;2.55;;
60492;SDS011;46341;51.290;-2.474;2022-07-23T00:37:57;6.18;;;2.55;;
60492;SDS011;46341;51.290;-2.474;2022-07-23T00:40:24;3.07;;;2.60;;
60492;SDS011;46341;51.290;-2.474;2022-07-23T00:42:50;5.45;;;3.38;;
60492;SDS011;46341;51.290;-2.474;2022-07-23T00:45:17;6.88;;;3.20;;
60492;SDS011;46341;51.290;-2.474;2022-07-23T00:47:44;6.38;;;3.22;;
60492;SDS011;46341;51.290;-2.474;2022-07-23T00:50:10;5.72;;;2.92;;
60492;SDS011;46341;51.290;-2.474;2022-07-23T00:52:37;7.15;;;3.40;;
60492;SDS011;46341;51.290;-2.474;2022-07-23T00:55:05;3.58;;;3.00;;
60492;SDS011;46341;51.290;-2.474;2022-07-23T00:57:32;3.95;;;2.92;;
60492;SDS011;46341;51.290;-2.474;2022-07-23T00:59:59;6.22;;;3.67;;
60492;SDS011;46341;51.290;-2.474;2022-07-23T01:02:26;4.43;;;2.95;;
60492;SDS011;46341;51.290;-2.474;2022-07-23T01:04:52;5.03;;;3.58;;
60492;SDS011;46341;51.290;-2.474;2022-07-23T01:07:19;5.40;;;3.15;;
60492;SDS011;46341;51.290;-2.474;2022-07-23T01:09:46;4.68;;;2.85;;
60492;SDS011;46341;51.290;-2.474;2022-07-23T01:12:12;6.93;;;3.17;;
60492;SDS011;46341;51.290;-2.474;2022-07-23T01:14:39;5.43;;;3.13;;
60492;SDS011;46341;51.290;-2.474;2022-07-23T01:17:05;4.60;;;2.92;;
60492;SDS011;46341;51.290;-2.474;2022-07-23T01:19:31;7.20;;;3.22;;
60492;SDS011;46341;51.290;-2.474;2022-07-23T01:21:58;5.90;;;3.17;;
60492;SDS011;46341;51.290;-2.474;2022-07-23T01:24:27;4.40;;;3.17;;
60492;SDS011;46341;51.290;-2.474;2022-07-23T01:26:53;4.90;;;2.80;;
60492;SDS011;46341;51.290;-2.474;2022-07-23T01:29:20;4.38;;;2.97;;
60492;SDS011;46341;51.290;-2.474;2022-07-23T01:31:47;5.75;;;3.38;;
60492;SDS011;46341;51.290;-2.474;2022-07-23T01:34:14;3.97;;;3.17;;
60492;SDS011;46341;51.290;-2.474;2022-07-23T01:36:40;3.50;;;3.20;;
60492;SDS011;46341;51.290;-2.474;2022-07-23T01:39:07;4.53;;;3.22;;
60492;SDS011;46341;51.290;-2.474;2022-07-23T01:41:33;6.28;;;3.80;;
60492;SDS011;46341;51.290;-2.474;2022-07-23T01:44:00;4.47;;;3.80;;
60492;SDS011;46341;51.290;-2.474;2022-07-23T01:46:27;5.15;;;3.75;;
60492;SDS011;46341;51.290;-2.474;2022-07-23T01:48:53;4.38;;;3.63;;
60492;SDS011;46341;51.290;-2.474;2022-07-23T01:51:20;5.13;;;3.50;;
60492;SDS011;46341;51.290;-2.474;2022-07-23T01:53:46;5.65;;;3.67;;
60492;SDS011;46341;51.290;-2.474;2022-07-23T01:56:13;5.65;;;3.83;;
60492;SDS011;46341;51.290;-2.474;2022-07-23T01:58:41;4.80;;;3.38;;
60492;SDS011;46341;51.290;-2.474;2022-07-23T02:01:07;4.55;;;3.67;;
60492;SDS011;46341;51.290;-2.474;2022-07-23T02:03:34;5.35;;;3.53;;
60492;SDS011;46341;51.290;-2.474;2022-07-23T02:06:00;5.10;;;3.70;;
60492;SDS011;46341;51.290;-2.474;2022-07-23T02:08:27;4.57;;;3.53;;
60492;SDS011;46341;51.290;-2.474;2022-07-23T02:10:53;4.50;;;3.30;;
60492;SDS011;46341;51.290;-2.474;2022-07-23T02:13:19;4.03;;;3.50;;
60492;SDS011;46341;51.290;-2.474;2022-07-23T02:15:47;5.78;;;3.60;;
60492;SDS011;46341;51.290;-2.474;2022-07-23T02:18:14;4.20;;;3.80;;
60492;SDS011;46341;51.290;-2.474;2022-07-23T02:20:41;6.57;;;3.92;;
60492;SDS011;46341;51.290;-2.474;2022-07-23T02:23:07;7.28;;;4.00;;
60492;SDS011;46341;51.290;-2.474;2022-07-23T02:25:34;4.95;;;3.78;;
60492;SDS011;46341;51.290;-2.474;2022-07-23T02:28:00;4.43;;;3.42;;
60492;SDS011;46341;51.290;-2.474;2022-07-23T02:30:27;3.65;;;3.20;;
60492;SDS011;46341;51.290;-2.474;2022-07-23T02:32:53;5.63;;;3.53;;
60492;SDS011;46341;51.290;-2.474;2022-07-23T02:35:20;4.60;;;3.45;;
60492;SDS011;46341;51.290;-2.474;2022-07-23T02:37:46;4.60;;;3.75;;
60492;SDS011;46341;51.290;-2.474;2022-07-23T02:42:40;3.70;;;3.10;;
60492;SDS011;46341;51.290;-2.474;2022-07-23T02:45:07;4.70;;;3.25;;
60492;SDS011;46341;51.290;-2.474;2022-07-23T02:47:33;6.63;;;3.35;;
60492;SDS011;46341;51.290;-2.474;2022-07-23T02:50:00;5.38;;;3.70;;
60492;SDS011;46341;51.290;-2.474;2022-07-23T02:52:26;6.10;;;3.63;;
60492;SDS011;46341;51.290;-2.474;2022-07-23T02:54:53;5.55;;;3.95;;
60492;SDS011;46341;51.290;-2.474;2022-07-23T02:57:19;3.95;;;3.60;;
60492;SDS011;46341;51.290;-2.474;2022-07-23T02:59:45;5.47;;;3.20;;
60492;SDS011;46341;51.290;-2.474;2022-07-23T03:02:12;7.43;;;3.80;;
60492;SDS011;46341;51.290;-2.474;2022-07-23T03:04:38;3.25;;;2.95;;
60492;SDS011;46341;51.290;-2.474;2022-07-23T03:07:05;3.92;;;3.53;;
60492;SDS011;46341;51.290;-2.474;2022-07-23T03:09:31;4.43;;;3.80;;
60492;SDS011;46341;51.290;-2.474;2022-07-23T03:11:58;3.75;;;3.15;;
60492;SDS011;46341;51.290;-2.474;2022-07-23T03:14:24;4.68;;;4.28;;
60492;SDS011;46341;51.290;-2.474;2022-07-23T03:16:50;3.83;;;3.53;;
60492;SDS011;46341;51.290;-2.474;2022-07-23T03:19:17;4.85;;;4.00;;
60492;SDS011;46341;51.290;-2.474;2022-07-23T03:21:43;4.07;;;3.30;;
60492;SDS011;46341;51.290;-2.474;2022-07-23T03:24:10;3.75;;;3.30;;
60492;SDS011;46341;51.290;-2.474;2022-07-23T03:26:36;3.70;;;3.40;;
60492;SDS011;46341;51.290;-2.474;2022-07-23T03:29:03;3.50;;;2.90;;
60492;SDS011;46341;51.290;-2.474;2022-07-23T03:31:30;4.57;;;4.18;;
60492;SDS011;46341;51.290;-2.474;2022-07-23T03:34:00;4.63;;;3.90;;
60492;SDS011;46341;51.290;-2.474;2022-07-23T03:36:26;5.60;;;3.95;;
60492;SDS011;46341;51.290;-2.474;2022-07-23T03:38:53;5.75;;;4.10;;
60492;SDS011;46341;51.290;-2.474;2022-07-23T03:41:20;5.00;;;3.72;;
60492;SDS011;46341;51.290;-2.474;2022-07-23T03:43:46;4.50;;;4.00;;
60492;SDS011;46341;51.290;-2.474;2022-07-23T03:46:13;6.63;;;4.45;;
60492;SDS011;46341;51.290;-2.474;2022-07-23T03:48:40;5.22;;;3.50;;
60492;SDS011;46341;51.290;-2.474;2022-07-23T03:51:06;6.35;;;3.97;;
60492;SDS011;46341;51.290;-2.474;2022-07-23T03:53:34;5.82;;;3.75;;
60492;SDS011;46341;51.290;-2.474;2022-07-23T03:56:00;4.80;;;4.03;;
60492;SDS011;46341;51.290;-2.474;2022-07-23T03:58:26;5.15;;;3.63;;
60492;SDS011;46341;51.290;-2.474;2022-07-23T04:00:53;5.82;;;3.78;;
60492;SDS011;46341;51.290;-2.474;2022-07-23T04:03:19;5.50;;;3.42;;
60492;SDS011;46341;51.290;-2.474;2022-07-23T04:05:46;6.43;;;3.85;;
60492;SDS011;46341;51.290;-2.474;2022-07-23T04:08:12;6.80;;;3.47;;
60492;SDS011;46341;51.290;-2.474;2022-07-23T04:10:39;3.92;;;3.25;;
60492;SDS011;46341;51.290;-2.474;2022-07-23T04:13:05;7.53;;;3.80;;
60492;SDS011;46341;51.290;-2.474;2022-07-23T04:15:32;6.13;;;3.88;;
60492;SDS011;46341;51.290;-2.474;2022-07-23T04:17:58;4.18;;;3.25;;
60492;SDS011;46341;51.290;-2.474;2022-07-23T04:20:24;6.22;;;3.78;;
60492;SDS011;46341;51.290;-2.474;2022-07-23T04:22:51;4.00;;;3.60;;
60492;SDS011;46341;51.290;-2.474;2022-07-23T04:25:17;4.50;;;3.50;;
60492;SDS011;46341;51.290;-2.474;2022-07-23T04:27:44;5.75;;;4.18;;
60492;SDS011;46341;51.290;-2.474;2022-07-23T04:30:10;5.53;;;3.92;;
60492;SDS011;46341;51.290;-2.474;2022-07-23T04:32:37;4.28;;;3.33;;
60492;SDS011;46341;51.290;-2.474;2022-07-23T04:35:03;5.40;;;3.63;;
60492;SDS011;46341;51.290;-2.474;2022-07-23T04:37:30;3.58;;;3.25;;
60492;SDS011;46341;51.290;-2.474;2022-07-23T04:39:56;4.90;;;3.83;;
60492;SDS011;46341;51.290;-2.474;2022-07-23T04:42:22;4.78;;;3.25;;
60492;SDS011;46341;51.290;-2.474;2022-07-23T04:44:49;5.32;;;3.33;;
60492;SDS011;46341;51.290;-2.474;2022-07-23T04:47:15;4.82;;;3.63;;
60492;SDS011;46341;51.290;-2.474;2022-07-23T04:49:42;6.37;;;3.90;;
60492;SDS011;46341;51.290;-2.474;2022-07-23T04:52:09;7.25;;;3.40;;
60492;SDS011;46341;51.290;-2.474;2022-07-23T04:54:35;6.57;;;3.92;;
60492;SDS011;46341;51.290;-2.474;2022-07-23T04:57:02;5.28;;;3.55;;
60492;SDS011;46341;51.290;-2.474;2022-07-23T05:01:56;4.30;;;3.90;;
60492;SDS011;46341;51.290;-2.474;2022-07-23T05:04:22;7.32;;;3.83;;
60492;SDS011;46341;51.290;-2.474;2022-07-23T05:06:49;4.55;;;3.85;;
60492;SDS011;46341;51.290;-2.474;2022-07-23T05:09:15;4.43;;;3.90;;
60492;SDS011;46341;51.290;-2.474;2022-07-23T05:11:42;4.53;;;3.75;;
60492;SDS011;46341;51.290;-2.474;2022-07-23T05:14:08;6.30;;;4.40;;
60492;SDS011;46341;51.290;-2.474;2022-07-23T05:16:34;6.20;;;4.32;;
60492;SDS011;46341;51.290;-2.474;2022-07-23T05:19:01;5.75;;;4.45;;
60492;SDS011;46341;51.290;-2.474;2022-07-23T05:21:28;4.95;;;4.35;;
60492;SDS011;46341;51.290;-2.474;2022-07-23T05:23:54;7.82;;;4.65;;
60492;SDS011;46341;51.290;-2.474;2022-07-23T05:26:21;5.32;;;4.03;;
60492;SDS011;46341;51.290;-2.474;2022-07-23T05:28:47;6.65;;;3.45;;
60492;SDS011;46341;51.290;-2.474;2022-07-23T05:33:41;5.95;;;4.60;;
60492;SDS011;46341;51.290;-2.474;2022-07-23T05:36:08;5.22;;;4.70;;
60492;SDS011;46341;51.290;-2.474;2022-07-23T05:38:35;6.78;;;5.10;;
60492;SDS011;46341;51.290;-2.474;2022-07-23T05:41:02;6.22;;;4.82;;
60492;SDS011;46341;51.290;-2.474;2022-07-23T05:43:28;7.75;;;5.47;;
60492;SDS011;46341;51.290;-2.474;2022-07-23T05:45:55;5.78;;;4.78;;
60492;SDS011;46341;51.290;-2.474;2022-07-23T05:48:21;9.30;;;5.30;;
60492;SDS011;46341;51.290;-2.474;2022-07-23T05:50:48;6.10;;;5.30;;
60492;SDS011;46341;51.290;-2.474;2022-07-23T05:53:15;6.78;;;5.20;;
60492;SDS011;46341;51.290;-2.474;2022-07-23T05:55:41;9.05;;;5.40;;
60492;SDS011;46341;51.290;-2.474;2022-07-23T05:58:07;6.60;;;5.40;;
60492;SDS011;46341;51.290;-2.474;2022-07-23T06:00:35;6.25;;;5.65;;
60492;SDS011;46341;51.290;-2.474;2022-07-23T06:03:01;7.78;;;5.50;;
60492;SDS011;46341;51.290;-2.474;2022-07-23T06:05:28;8.53;;;5.77;;
60492;SDS011;46341;51.290;-2.474;2022-07-23T06:07:54;7.50;;;5.55;;
60492;SDS011;46341;51.290;-2.474;2022-07-23T06:10:21;7.97;;;5.18;;
60492;SDS011;46341;51.290;-2.474;2022-07-23T06:12:47;6.85;;;5.10;;
60492;SDS011;46341;51.290;-2.474;2022-07-23T06:15:14;6.38;;;5.57;;
60492;SDS011;46341;51.290;-2.474;2022-07-23T06:17:40;6.05;;;5.15;;
60492;SDS011;46341;51.290;-2.474;2022-07-23T06:20:07;5.93;;;4.78;;
60492;SDS011;46341;51.290;-2.474;2022-07-23T06:22:34;5.35;;;4.85;;
60492;SDS011;46341;51.290;-2.474;2022-07-23T06:25:01;5.27;;;4.27;;
60492;SDS011;46341;51.290;-2.474;2022-07-23T06:27:28;5.85;;;4.47;;
60492;SDS011;46341;51.290;-2.474;2022-07-23T06:29:54;6.85;;;3.88;;
60492;SDS011;46341;51.290;-2.474;2022-07-23T06:32:21;5.53;;;3.60;;
60492;SDS011;46341;51.290;-2.474;2022-07-23T06:34:47;4.10;;;3.00;;
60492;SDS011;46341;51.290;-2.474;2022-07-23T06:37:14;3.03;;;2.60;;
60492;SDS011;46341;51.290;-2.474;2022-07-23T06:39:40;6.28;;;2.95;;
60492;SDS011;46341;51.290;-2.474;2022-07-23T06:42:07;1.98;;;1.70;;
60492;SDS011;46341;51.290;-2.474;2022-07-23T06:44:34;2.88;;;2.35;;
60492;SDS011;46341;51.290;-2.474;2022-07-23T06:47:00;3.17;;;1.90;;
60492;SDS011;46341;51.290;-2.474;2022-07-23T06:49:26;2.33;;;1.77;;
60492;SDS011;46341;51.290;-2.474;2022-07-23T06:51:53;4.47;;;2.00;;
60492;SDS011;46341;51.290;-2.474;2022-07-23T06:54:19;2.50;;;2.13;;
60492;SDS011;46341;51.290;-2.474;2022-07-23T06:56:46;3.28;;;1.60;;
60492;SDS011;46341;51.290;-2.474;2022-07-23T06:59:12;2.78;;;1.60;;
60492;SDS011;46341;51.290;-2.474;2022-07-23T07:01:39;1.77;;;1.67;;
60492;SDS011;46341;51.290;-2.474;2022-07-23T07:04:05;1.73;;;1.50;;
60492;SDS011;46341;51.290;-2.474;2022-07-23T07:06:32;2.03;;;1.30;;
60492;SDS011;46341;51.290;-2.474;2022-07-23T07:08:58;1.20;;;1.00;;
60492;SDS011;46341;51.290;-2.474;2022-07-23T07:11:25;2.70;;;1.38;;
60492;SDS011;46341;51.290;-2.474;2022-07-23T07:13:52;1.60;;;1.30;;
60492;SDS011;46341;51.290;-2.474;2022-07-23T07:16:18;1.25;;;1.17;;
60492;SDS011;46341;51.290;-2.474;2022-07-23T07:18:45;3.37;;;1.20;;
60492;SDS011;46341;51.290;-2.474;2022-07-23T07:21:11;2.45;;;1.35;;
60492;SDS011;46341;51.290;-2.474;2022-07-23T07:23:38;1.20;;;1.10;;
60492;SDS011;46341;51.290;-2.474;2022-07-23T07:26:04;1.55;;;1.40;;
60492;SDS011;46341;51.290;-2.474;2022-07-23T07:28:31;2.83;;;1.40;;
60492;SDS011;46341;51.290;-2.474;2022-07-23T07:30:57;1.42;;;1.30;;
60492;SDS011;46341;51.290;-2.474;2022-07-23T07:33:24;1.33;;;1.20;;
60492;SDS011;46341;51.290;-2.474;2022-07-23T07:35:50;2.43;;;1.30;;
60492;SDS011;46341;51.290;-2.474;2022-07-23T07:38:17;1.57;;;0.90;;
60492;SDS011;46341;51.290;-2.474;2022-07-23T07:40:43;1.73;;;1.20;;
60492;SDS011;46341;51.290;-2.474;2022-07-23T07:43:10;1.20;;;1.10;;
60492;SDS011;46341;51.290;-2.474;2022-07-23T07:45:36;0.90;;;0.80;;
60492;SDS011;46341;51.290;-2.474;2022-07-23T07:48:03;1.73;;;1.20;;
60492;SDS011;46341;51.290;-2.474;2022-07-23T07:50:30;1.90;;;0.90;;
60492;SDS011;46341;51.290;-2.474;2022-07-23T07:52:56;2.28;;;0.90;;
60492;SDS011;46341;51.290;-2.474;2022-07-23T07:55:23;2.15;;;0.98;;
60492;SDS011;46341;51.290;-2.474;2022-07-23T07:57:49;1.42;;;0.77;;
60492;SDS011;46341;51.290;-2.474;2022-07-23T08:00:16;2.80;;;0.90;;
60492;SDS011;46341;51.290;-2.474;2022-07-23T08:02:44;0.82;;;0.50;;
60492;SDS011;46341;51.290;-2.474;2022-07-23T08:05:11;0.95;;;0.30;;
60492;SDS011;46341;51.290;-2.474;2022-07-23T08:07:38;0.80;;;0.45;;
60492;SDS011;46341;51.290;-2.474;2022-07-23T08:10:06;0.40;;;0.40;;
60492;SDS011;46341;51.290;-2.474;2022-07-23T08:15:06;0.73;;;0.40;;
60492;SDS011;46341;51.290;-2.474;2022-07-23T08:17:39;1.02;;;0.60;;
60492;SDS011;46341;51.290;-2.474;2022-07-23T08:20:06;0.68;;;0.60;;
60492;SDS011;46341;51.290;-2.474;2022-07-23T08:25:09;0.40;;;0.40;;
60492;SDS011;46341;51.290;-2.474;2022-07-23T08:30:02;1.65;;;0.45;;
60492;SDS011;46341;51.290;-2.474;2022-07-23T08:32:29;0.35;;;0.35;;
60492;SDS011;46341;51.290;-2.474;2022-07-23T08:35:10;0.77;;;0.50;;
60492;SDS011;46341;51.290;-2.474;2022-07-23T08:37:36;0.68;;;0.43;;
60492;SDS011;46341;51.290;-2.474;2022-07-23T08:40:03;0.98;;;0.57;;
60492;SDS011;46341;51.290;-2.474;2022-07-23T08:42:30;1.85;;;0.70;;
60492;SDS011;46341;51.290;-2.474;2022-07-23T08:44:57;0.60;;;0.60;;
60492;SDS011;46341;51.290;-2.474;2022-07-23T08:47:23;0.45;;;0.43;;
60492;SDS011;46341;51.290;-2.474;2022-07-23T08:49:52;1.13;;;0.63;;
60492;SDS011;46341;51.290;-2.474;2022-07-23T08:54:49;1.23;;;0.50;;
60492;SDS011;46341;51.290;-2.474;2022-07-23T08:57:16;0.52;;;0.32;;
60492;SDS011;46341;51.290;-2.474;2022-07-23T08:59:43;1.30;;;0.60;;
60492;SDS011;46341;51.290;-2.474;2022-07-23T09:02:09;0.50;;;0.50;;
60492;SDS011;46341;51.290;-2.474;2022-07-23T09:04:36;0.88;;;0.50;;
60492;SDS011;46341;51.290;-2.474;2022-07-23T09:07:02;0.73;;;0.40;;
60492;SDS011;46341;51.290;-2.474;2022-07-23T09:09:29;0.43;;;0.43;;
60492;SDS011;46341;51.290;-2.474;2022-07-23T09:12:04;0.93;;;0.68;;
60492;SDS011;46341;51.290;-2.474;2022-07-23T09:14:41;0.50;;;0.47;;
60492;SDS011;46341;51.290;-2.474;2022-07-23T09:17:11;1.17;;;1.02;;
60492;SDS011;46341;51.290;-2.474;2022-07-23T09:19:39;0.77;;;0.70;;
60492;SDS011;46341;51.290;-2.474;2022-07-23T09:22:18;0.77;;;0.70;;
60492;SDS011;46341;51.290;-2.474;2022-07-23T09:25:10;0.77;;;0.73;;
60492;SDS011;46341;51.290;-2.474;2022-07-23T09:27:47;1.05;;;0.68;;
60492;SDS011;46341;51.290;-2.474;2022-07-23T09:30:21;0.60;;;0.60;;
60492;SDS011;46341;51.290;-2.474;2022-07-23T09:33:07;0.88;;;0.63;;
60492;SDS011;46341;51.290;-2.474;2022-07-23T09:35:43;1.55;;;0.65;;
60492;SDS011;46341;51.290;-2.474;2022-07-23T09:38:10;0.90;;;0.60;;
60492;SDS011;46341;51.290;-2.474;2022-07-23T09:40:36;0.82;;;0.68;;
60492;SDS011;46341;51.290;-2.474;2022-07-23T09:43:02;0.60;;;0.60;;
60492;SDS011;46341;51.290;-2.474;2022-07-23T09:45:29;0.55;;;0.50;;
60492;SDS011;46341;51.290;-2.474;2022-07-23T09:48:15;1.58;;;0.70;;
60492;SDS011;46341;51.290;-2.474;2022-07-23T09:50:41;0.73;;;0.70;;
60492;SDS011;46341;51.290;-2.474;2022-07-23T09:53:08;0.60;;;0.60;;
60492;SDS011;46341;51.290;-2.474;2022-07-23T09:55:35;0.70;;;0.70;;
60492;SDS011;46341;51.290;-2.474;2022-07-23T09:58:05;0.90;;;0.90;;
60492;SDS011;46341;51.290;-2.474;2022-07-23T10:00:35;0.77;;;0.70;;
60492;SDS011;46341;51.290;-2.474;2022-07-23T10:03:01;1.23;;;0.70;;
60492;SDS011;46341;51.290;-2.474;2022-07-23T10:05:30;0.95;;;0.73;;
60492;SDS011;46341;51.290;-2.474;2022-07-23T10:07:56;1.38;;;0.80;;
60492;SDS011;46341;51.290;-2.474;2022-07-23T10:12:50;0.60;;;0.60;;
60492;SDS011;46341;51.290;-2.474;2022-07-23T10:15:16;0.90;;;0.88;;
60492;SDS011;46341;51.290;-2.474;2022-07-23T10:17:43;0.70;;;0.70;;
60492;SDS011;46341;51.290;-2.474;2022-07-23T10:20:09;0.82;;;0.70;;
60492;SDS011;46341;51.290;-2.474;2022-07-23T10:22:40;1.60;;;0.82;;
60492;SDS011;46341;51.290;-2.474;2022-07-23T10:25:15;1.08;;;0.98;;
60492;SDS011;46341;51.290;-2.474;2022-07-23T10:30:22;1.05;;;1.05;;
60492;SDS011;46341;51.290;-2.474;2022-07-23T10:40:53;2.03;;;1.60;;
60492;SDS011;46341;51.290;-2.474;2022-07-23T10:43:21;2.33;;;1.92;;
60492;SDS011;46341;51.290;-2.474;2022-07-23T10:45:47;2.13;;;1.93;;
60492;SDS011;46341;51.290;-2.474;2022-07-23T10:48:16;3.90;;;1.90;;
60492;SDS011;46341;51.290;-2.474;2022-07-23T10:50:44;2.63;;;2.03;;
60492;SDS011;46341;51.290;-2.474;2022-07-23T10:53:12;1.65;;;1.55;;
60492;SDS011;46341;51.290;-2.474;2022-07-23T10:55:41;1.40;;;1.35;;
60492;SDS011;46341;51.290;-2.474;2022-07-23T10:58:07;1.65;;;1.52;;
60492;SDS011;46341;51.290;-2.474;2022-07-23T11:00:35;1.63;;;1.53;;
60492;SDS011;46341;51.290;-2.474;2022-07-23T11:03:05;1.52;;;1.42;;
60492;SDS011;46341;51.290;-2.474;2022-07-23T11:05:51;1.52;;;1.42;;
60492;SDS011;46341;51.290;-2.474;2022-07-23T11:08:18;1.95;;;1.60;;
60492;SDS011;46341;51.290;-2.474;2022-07-23T11:10:53;2.17;;;1.70;;
60492;SDS011;46341;51.290;-2.474;2022-07-23T11:16:13;1.75;;;1.40;;
60492;SDS011;46341;51.290;-2.474;2022-07-23T11:31:57;2.53;;;1.35;;
60492;SDS011;46341;51.290;-2.474;2022-07-23T11:34:28;1.40;;;1.30;;
60492;SDS011;46341;51.290;-2.474;2022-07-23T11:36:55;1.65;;;1.55;;
60492;SDS011;46341;51.290;-2.474;2022-07-23T11:39:22;1.97;;;1.40;;
60492;SDS011;46341;51.290;-2.474;2022-07-23T11:41:51;2.15;;;1.40;;
60492;SDS011;46341;51.290;-2.474;2022-07-23T11:46:54;1.38;;;1.27;;
60492;SDS011;46341;51.290;-2.474;2022-07-23T11:49:20;1.77;;;1.67;;
60492;SDS011;46341;51.290;-2.474;2022-07-23T11:51:47;1.88;;;1.35;;
60492;SDS011;46341;51.290;-2.474;2022-07-23T11:54:13;2.13;;;1.63;;
60492;SDS011;46341;51.290;-2.474;2022-07-23T11:56:54;1.55;;;1.20;;
60492;SDS011;46341;51.290;-2.474;2022-07-23T11:59:21;1.50;;;1.40;;
60492;SDS011;46341;51.290;-2.474;2022-07-23T12:02:23;2.38;;;1.30;;
60492;SDS011;46341;51.290;-2.474;2022-07-23T12:04:43;1.58;;;1.40;;
60492;SDS011;46341;51.290;-2.474;2022-07-23T12:07:30;2.25;;;1.20;;
60492;SDS011;46341;51.290;-2.474;2022-07-23T12:09:58;2.58;;;1.30;;
60492;SDS011;46341;51.290;-2.474;2022-07-23T12:12:25;1.80;;;1.30;;
60492;SDS011;46341;51.290;-2.474;2022-07-23T12:14:52;1.65;;;1.55;;
60492;SDS011;46341;51.290;-2.474;2022-07-23T12:17:19;1.73;;;1.50;;
60492;SDS011;46341;51.290;-2.474;2022-07-23T12:19:46;2.08;;;1.58;;
60492;SDS011;46341;51.290;-2.474;2022-07-23T12:22:14;3.13;;;1.70;;
60492;SDS011;46341;51.290;-2.474;2022-07-23T12:24:57;1.77;;;1.40;;
60492;SDS011;46341;51.290;-2.474;2022-07-23T12:27:24;2.13;;;1.92;;
60492;SDS011;46341;51.290;-2.474;2022-07-23T12:29:51;1.67;;;1.58;;
60492;SDS011;46341;51.290;-2.474;2022-07-23T12:32:22;1.50;;;1.40;;
60492;SDS011;46341;51.290;-2.474;2022-07-23T12:34:50;2.28;;;1.63;;
60492;SDS011;46341;51.290;-2.474;2022-07-23T12:37:30;2.10;;;1.90;;
60492;SDS011;46341;51.290;-2.474;2022-07-23T12:39:58;1.98;;;1.88;;
60492;SDS011;46341;51.290;-2.474;2022-07-23T12:42:24;2.50;;;2.30;;
60492;SDS011;46341;51.290;-2.474;2022-07-23T12:45:04;2.20;;;1.80;;
60492;SDS011;46341;51.290;-2.474;2022-07-23T12:47:49;3.67;;;2.15;;
60492;SDS011;46341;51.290;-2.474;2022-07-23T12:50:35;2.60;;;2.40;;
60492;SDS011;46341;51.290;-2.474;2022-07-23T12:53:04;2.25;;;2.05;;
60492;SDS011;46341;51.290;-2.474;2022-07-23T12:55:31;3.72;;;2.03;;
60492;SDS011;46341;51.290;-2.474;2022-07-23T12:58:18;4.43;;;2.90;;
60492;SDS011;46341;51.290;-2.474;2022-07-23T13:00:56;2.92;;;2.30;;
60492;SDS011;46341;51.290;-2.474;2022-07-23T13:05:53;3.67;;;2.15;;
60492;SDS011;46341;51.290;-2.474;2022-07-23T13:08:19;2.67;;;2.17;;
60492;SDS011;46341;51.290;-2.474;2022-07-23T13:10:45;2.60;;;2.27;;
60492;SDS011;46341;51.290;-2.474;2022-07-23T13:13:19;2.75;;;2.13;;
60492;SDS011;46341;51.290;-2.474;2022-07-23T13:15:46;3.42;;;2.30;;
60492;SDS011;46341;51.290;-2.474;2022-07-23T13:20:39;1.58;;;1.48;;
60492;SDS011;46341;51.290;-2.474;2022-07-23T13:23:06;2.92;;;1.55;;
60492;SDS011;46341;51.290;-2.474;2022-07-23T13:25:33;1.50;;;1.40;;
60492;SDS011;46341;51.290;-2.474;2022-07-23T13:28:00;2.75;;;1.45;;
60492;SDS011;46341;51.290;-2.474;2022-07-23T13:30:26;1.70;;;1.60;;
60492;SDS011;46341;51.290;-2.474;2022-07-23T13:32:55;1.42;;;1.33;;
60492;SDS011;46341;51.290;-2.474;2022-07-23T13:35:26;3.05;;;1.95;;
60492;SDS011;46341;51.290;-2.474;2022-07-23T13:37:58;2.45;;;1.70;;
60492;SDS011;46341;51.290;-2.474;2022-07-23T13:40:24;1.98;;;1.73;;
60492;SDS011;46341;51.290;-2.474;2022-07-23T13:42:51;2.05;;;1.85;;
60492;SDS011;46341;51.290;-2.474;2022-07-23T13:45:19;2.05;;;1.75;;
60492;SDS011;46341;51.290;-2.474;2022-07-23T13:47:46;3.42;;;1.58;;
60492;SDS011;46341;51.290;-2.474;2022-07-23T13:50:12;1.95;;;1.60;;
60492;SDS011;46341;51.290;-2.474;2022-07-23T13:52:42;3.78;;;2.00;;
60492;SDS011;46341;51.290;-2.474;2022-07-23T13:55:08;2.10;;;1.90;;
60492;SDS011;46341;51.290;-2.474;2022-07-23T13:57:35;2.30;;;1.77;;
60492;SDS011;46341;51.290;-2.474;2022-07-23T14:00:02;2.70;;;1.80;;
60492;SDS011;46341;51.290;-2.474;2022-07-23T14:02:29;3.47;;;2.30;;
60492;SDS011;46341;51.290;-2.474;2022-07-23T14:07:23;2.75;;;2.50;;
60492;SDS011;46341;51.290;-2.474;2022-07-23T14:09:49;4.00;;;2.50;;
60492;SDS011;46341;51.290;-2.474;2022-07-23T14:12:17;4.72;;;2.50;;
60492;SDS011;46341;51.290;-2.474;2022-07-23T14:14:44;2.78;;;2.58;;
60492;SDS011;46341;51.290;-2.474;2022-07-23T14:17:10;2.58;;;2.38;;
60492;SDS011;46341;51.290;-2.474;2022-07-23T14:19:37;3.63;;;2.63;;
60492;SDS011;46341;51.290;-2.474;2022-07-23T14:22:03;3.05;;;2.72;;
60492;SDS011;46341;51.290;-2.474;2022-07-23T14:24:31;3.13;;;2.60;;
60492;SDS011;46341;51.290;-2.474;2022-07-23T14:27:00;2.88;;;2.50;;
60492;SDS011;46341;51.290;-2.474;2022-07-23T14:29:28;6.07;;;2.78;;
60492;SDS011;46341;51.290;-2.474;2022-07-23T14:31:54;4.88;;;2.83;;
60492;SDS011;46341;51.290;-2.474;2022-07-23T14:34:21;3.42;;;2.53;;
60492;SDS011;46341;51.290;-2.474;2022-07-23T14:36:53;5.35;;;2.80;;
60492;SDS011;46341;51.290;-2.474;2022-07-23T14:39:20;5.32;;;2.83;;
60492;SDS011;46341;51.290;-2.474;2022-07-23T14:41:46;4.07;;;2.70;;
60492;SDS011;46341;51.290;-2.474;2022-07-23T14:44:12;4.22;;;2.45;;
60492;SDS011;46341;51.290;-2.474;2022-07-23T14:46:39;3.20;;;2.70;;
60492;SDS011;46341;51.290;-2.474;2022-07-23T14:49:06;2.95;;;2.63;;
60492;SDS011;46341;51.290;-2.474;2022-07-23T14:51:34;4.07;;;2.92;;
60492;SDS011;46341;51.290;-2.474;2022-07-23T14:54:01;3.45;;;3.10;;
60492;SDS011;46341;51.290;-2.474;2022-07-23T14:56:27;4.10;;;2.70;;
60492;SDS011;46341;51.290;-2.474;2022-07-23T14:58:54;3.77;;;2.50;;
60492;SDS011;46341;51.290;-2.474;2022-07-23T15:01:22;3.25;;;2.55;;
60492;SDS011;46341;51.290;-2.474;2022-07-23T15:03:51;4.82;;;3.00;;
60492;SDS011;46341;51.290;-2.474;2022-07-23T15:06:21;3.90;;;3.28;;
60492;SDS011;46341;51.290;-2.474;2022-07-23T15:08:48;6.38;;;3.05;;
60492;SDS011;46341;51.290;-2.474;2022-07-23T15:11:15;5.45;;;3.05;;
60492;SDS011;46341;51.290;-2.474;2022-07-23T15:13:41;3.77;;;2.60;;
60492;SDS011;46341;51.290;-2.474;2022-07-23T15:16:08;4.22;;;3.45;;
60492;SDS011;46341;51.290;-2.474;2022-07-23T15:18:35;4.80;;;2.92;;
60492;SDS011;46341;51.290;-2.474;2022-07-23T15:21:03;5.97;;;3.00;;
60492;SDS011;46341;51.290;-2.474;2022-07-23T15:23:30;4.88;;;3.08;;
60492;SDS011;46341;51.290;-2.474;2022-07-23T15:25:57;3.97;;;2.93;;
60492;SDS011;46341;51.290;-2.474;2022-07-23T15:28:24;3.67;;;2.78;;
60492;SDS011;46341;51.290;-2.474;2022-07-23T15:30:50;3.03;;;2.80;;
60492;SDS011;46341;51.290;-2.474;2022-07-23T15:33:19;5.28;;;3.00;;